createdAt,value
2023-05-01T00:01:38.661Z,44.4
2023-05-01T00:07:43.798Z,44.4
2023-05-01T00:13:49.348Z,44.4
2023-05-01T00:19:55.066Z,44.4
2023-05-01T00:26:00.758Z,44.4
2023-05-01T00:32:06.189Z,44.4
2023-05-01T00:38:12.057Z,44.5
2023-05-01T00:44:17.859Z,44.5
2023-05-01T00:50:22.846Z,44.5
2023-05-01T00:56:28.596Z,44.5
2023-05-01T01:02:34.463Z,44.5
2023-05-01T01:08:40.143Z,44.5
2023-05-01T01:14:45.602Z,44.5
2023-05-01T01:20:51.274Z,44.5
2023-05-01T01:26:57.279Z,44.6
2023-05-01T01:33:03.069Z,44.6
2023-05-01T01:39:08.625Z,44.6
2023-05-01T01:45:14.655Z,44.6
2023-05-01T01:51:20.787Z,44.7
2023-05-01T01:57:26.410Z,44.7
2023-05-01T02:03:32.219Z,44.7
2023-05-01T02:09:37.720Z,44.7
2023-05-01T02:15:43.170Z,44.7
2023-05-01T02:21:48.690Z,44.7
2023-05-01T02:27:54.285Z,44.7
2023-05-01T02:34:00.006Z,44.7
2023-05-01T02:40:05.821Z,44.8
2023-05-01T02:46:12.230Z,44.8
2023-05-01T02:52:18.595Z,44.8
2023-05-01T02:58:23.958Z,44.8
2023-05-01T03:04:29.990Z,44.8
2023-05-01T03:10:35.697Z,44.8
2023-05-01T03:16:41.877Z,44.8
2023-05-01T03:22:47.657Z,44.8
2023-05-01T03:28:53.690Z,44.8
2023-05-01T03:34:59.666Z,44.9
2023-05-01T03:41:05.632Z,44.8
2023-05-01T03:47:11.428Z,44.8
2023-05-01T03:53:17.182Z,44.8
2023-05-01T03:59:23.416Z,44.8
2023-05-01T04:05:29.147Z,44.7
2023-05-01T04:11:34.495Z,44.7
2023-05-01T04:17:40.400Z,44.7
2023-05-01T04:23:46.278Z,44.7
2023-05-01T04:29:51.815Z,44.6
2023-05-01T04:35:57.885Z,44.5
2023-05-01T04:42:03.178Z,44.5
2023-05-01T04:48:08.761Z,44.4
2023-05-01T04:54:14.561Z,44.4
2023-05-01T05:00:20.286Z,44.3
2023-05-01T05:06:26.336Z,44.3
2023-05-01T05:12:32.113Z,44.2
2023-05-01T05:18:37.875Z,44.2
2023-05-01T05:24:43.602Z,44.2
2023-05-01T05:30:49.390Z,44.1
2023-05-01T05:36:55.219Z,44.1
2023-05-01T05:43:00.963Z,44.1
2023-05-01T05:49:06.291Z,44.2
2023-05-01T05:55:12.089Z,44.2
2023-05-01T06:01:17.550Z,44.2
2023-05-01T06:07:23.514Z,44.2
2023-05-01T06:13:28.824Z,44.2
2023-05-01T06:19:34.584Z,44.1
2023-05-01T06:25:40.613Z,44.1
2023-05-01T06:31:46.392Z,44.1
2023-05-01T06:37:52.196Z,44.1
2023-05-01T06:43:58.099Z,44.2
2023-05-01T06:50:06.553Z,44.2
2023-05-01T06:56:12.198Z,44.2
2023-05-01T07:02:18.388Z,44.2
2023-05-01T07:08:24.390Z,44.2
2023-05-01T07:14:30.073Z,44.1
2023-05-01T07:20:35.892Z,44.1
2023-05-01T07:26:41.633Z,44.1
2023-05-01T07:32:46.843Z,43.9
2023-05-01T07:38:52.820Z,43.9
2023-05-01T07:44:58.130Z,43.8
2023-05-01T07:51:03.960Z,43.9
2023-05-01T07:57:09.714Z,44
2023-05-01T08:03:15.555Z,44
2023-05-01T08:09:21.089Z,44.1
2023-05-01T08:15:27.241Z,44.1
2023-05-01T08:21:32.877Z,44
2023-05-01T08:27:37.972Z,44.1
2023-05-01T08:33:43.762Z,44.2
2023-05-01T08:39:49.316Z,44.1
2023-05-01T08:45:54.977Z,44.2
2023-05-01T08:52:00.128Z,44.2
2023-05-01T08:58:05.412Z,44.1
2023-05-01T09:04:11.261Z,44.1
2023-05-01T09:10:17.582Z,44.2
2023-05-01T09:16:23.419Z,44.2
2023-05-01T09:22:28.929Z,44.2
2023-05-01T09:28:33.955Z,44.3
2023-05-01T09:34:39.315Z,44.3
2023-05-01T09:40:44.490Z,44.4
2023-05-01T09:46:50.193Z,44.4
2023-05-01T09:52:56.244Z,44.4
2023-05-01T09:59:01.967Z,44.4
2023-05-01T10:05:07.371Z,44.4
2023-05-01T10:11:12.955Z,44.5
2023-05-01T10:17:19.390Z,44.5
2023-05-01T10:23:25.899Z,44.5
2023-05-01T10:29:31.462Z,44.5
2023-05-01T10:35:37.318Z,44.5
2023-05-01T10:41:43.014Z,44.5
2023-05-01T10:47:49.008Z,44.6
2023-05-01T10:53:54.999Z,44.6
2023-05-01T11:00:01.021Z,44.7
2023-05-01T11:06:07.096Z,44.7
2023-05-01T11:12:12.577Z,44.7
2023-05-01T11:18:18.355Z,44.7
2023-05-01T11:24:24.073Z,44.8
2023-05-01T11:30:29.486Z,44.7
2023-05-01T11:36:35.869Z,44.8
2023-05-01T11:42:41.872Z,44.7
2023-05-01T11:48:47.391Z,44.5
2023-05-01T11:54:53.422Z,44.5
2023-05-01T12:00:59.581Z,44.5
2023-05-01T12:07:04.941Z,44.2
2023-05-01T12:13:10.762Z,44.4
2023-05-01T12:19:16.498Z,44.6
2023-05-01T12:25:22.112Z,44.3
2023-05-01T12:31:28.252Z,44.4
2023-05-01T12:37:34.216Z,44.4
2023-05-01T12:43:39.467Z,44.4
2023-05-01T12:49:45.374Z,44.3
2023-05-01T12:55:50.731Z,44.4
2023-05-01T13:01:56.118Z,44.4
2023-05-01T13:08:01.882Z,44.5
2023-05-01T13:14:07.854Z,44.5
2023-05-01T13:20:13.860Z,44.5
2023-05-01T13:26:19.412Z,44.5
2023-05-01T13:32:24.856Z,44.6
2023-05-01T13:38:30.205Z,44.6
2023-05-01T13:44:35.732Z,44.7
2023-05-01T13:50:41.103Z,44.7
2023-05-01T13:56:46.531Z,44.7
2023-05-01T14:02:53.154Z,44.6
2023-05-01T14:08:59.096Z,44.7
2023-05-01T14:15:05.652Z,44.7
2023-05-01T14:21:11.873Z,44.7
2023-05-01T14:27:17.424Z,44.7
2023-05-01T14:33:23.446Z,44.7
2023-05-01T14:39:29.983Z,44.9
2023-05-01T14:45:35.766Z,45
2023-05-01T14:51:41.187Z,44.9
2023-05-01T14:57:46.511Z,45
2023-05-01T15:03:52.334Z,45.1
2023-05-01T15:09:57.708Z,45.2
2023-05-01T15:16:03.043Z,45.3
2023-05-01T15:22:09.259Z,45.3
2023-05-01T15:28:15.194Z,45.3
2023-05-01T15:34:20.765Z,45.3
2023-05-01T15:40:26.596Z,45.3
2023-05-01T15:46:32.114Z,45.4
2023-05-01T15:52:38.306Z,45.3
2023-05-01T15:58:43.731Z,45.4
2023-05-01T16:04:49.428Z,45.4
2023-05-01T16:10:55.420Z,45.5
2023-05-01T16:17:01.304Z,45.5
2023-05-01T16:23:07.188Z,45.6
2023-05-01T16:29:13.009Z,45.7
2023-05-01T16:35:19.146Z,45.6
2023-05-01T16:41:24.784Z,45.6
2023-05-01T16:47:30.726Z,45.7
2023-05-01T16:53:36.521Z,45.7
2023-05-01T16:59:41.494Z,45.7
2023-05-01T17:05:47.216Z,45.8
2023-05-01T17:11:52.779Z,45.8
2023-05-01T17:17:58.598Z,45.8
2023-05-01T17:24:04.565Z,45.9
2023-05-01T17:30:10.792Z,46
2023-05-01T17:36:16.714Z,46
2023-05-01T17:42:22.084Z,46
2023-05-01T17:48:27.523Z,46
2023-05-01T17:54:33.035Z,46
2023-05-01T18:00:38.037Z,46
2023-05-01T18:06:43.673Z,46
2023-05-01T18:12:49.789Z,45.9
2023-05-01T18:18:55.926Z,46
2023-05-01T18:25:01.560Z,46
2023-05-01T18:31:07.515Z,46.1
2023-05-01T18:37:13.220Z,46.2
2023-05-01T18:43:18.698Z,46.2
2023-05-01T18:49:24.620Z,46.2
2023-05-01T18:55:31.202Z,46.2
2023-05-01T19:01:37.221Z,46.4
2023-05-01T19:07:43.172Z,46.3
2023-05-01T19:13:49.156Z,46.4
2023-05-01T19:19:54.947Z,46.4
2023-05-01T19:26:00.354Z,46.5
2023-05-01T19:32:06.105Z,46.5
2023-05-01T19:38:11.849Z,46.6
2023-05-01T19:44:17.072Z,46.6
2023-05-01T19:50:22.382Z,46.6
2023-05-01T19:56:28.170Z,46.6
2023-05-01T20:02:33.887Z,46.7
2023-05-01T20:08:39.498Z,46.6
2023-05-01T20:14:45.308Z,46.7
2023-05-01T20:20:50.932Z,46.7
2023-05-01T20:26:57.057Z,46.8
2023-05-01T20:33:03.107Z,46.8
2023-05-01T20:39:09.443Z,46.8
2023-05-01T20:45:15.254Z,46.8
2023-05-01T20:51:20.989Z,46.9
2023-05-01T20:57:26.141Z,46.9
2023-05-01T21:03:31.865Z,46.9
2023-05-01T21:09:37.914Z,46.9
2023-05-01T21:15:43.492Z,47
2023-05-01T21:21:49.662Z,46.9
2023-05-01T21:27:55.038Z,47
2023-05-01T21:34:00.684Z,47
2023-05-01T21:40:06.437Z,47
2023-05-01T21:46:12.550Z,47.1
2023-05-01T21:52:18.347Z,47.1
2023-05-01T21:58:24.342Z,47.1
2023-05-01T22:04:29.945Z,47.1
2023-05-01T22:10:35.458Z,47.2
2023-05-01T22:16:41.101Z,47.1
2023-05-01T22:22:46.263Z,47.2
2023-05-01T22:28:51.207Z,47.2
2023-05-01T22:34:56.739Z,47.2
2023-05-01T22:41:02.305Z,47.2
2023-05-01T22:47:07.127Z,47.2
2023-05-01T22:53:13.108Z,47.3
2023-05-01T22:59:19.044Z,47.3
2023-05-01T23:05:24.796Z,47.3
2023-05-01T23:11:30.595Z,47.3
2023-05-01T23:17:36.235Z,47.3
2023-05-01T23:23:41.961Z,47.4
2023-05-01T23:29:47.590Z,47.4
2023-05-01T23:35:52.873Z,47.4
2023-05-01T23:41:57.880Z,47.4
2023-05-01T23:48:03.086Z,47.4
2023-05-01T23:54:08.573Z,47.5
